Hovedside
METAR-TAF:

METAR-TAF

Lufthavner :

Oljeplattform

A12-cpp, Nederland

breddegrad: 55-23-57N, lengdegrad: 3-48-37E, høyde over havet: 33 m

Gjeldene værobservasjon

Denne rapporten ble laget for 19 minutter siden, klokken 12:55 UTC
Vind 13 kt fra Sør
Temperatur 16°C
Luftfuktighet 88%
Trykk 1022 hPa
Sikt 10 km eller mer

METAR: EHAK 181255Z AUTO 17013KT 9999 NSC 16/14 Q1022

Tid: 15:14 (13:14 UTC)


TAF: fraværende

Værobservasjoner og værvarsel for over 4000 flyplasser (METAR- og TAF-rapporter).

Tilgjengelige stasjoner er representert av de røde og gule prikkene på kartet.

Hold musepekeren over prikken for å se navnet på stasjonen.

Klikk så for å se værobservasjoner og -varsler.

For å forandre kartet kan du klikke på den grønne knappen med svart kryss for å zoome inn, på den grønne knappen med strek for å zoome ut, eller på de grønne pilene for å se tilstøtende kart.


METAR-TAF: